createdAt,value
2022-12-25T00:00:20.227Z,11.60
2022-12-25T00:02:45.136Z,11.60
2022-12-25T00:05:14.876Z,11.70
2022-12-25T00:07:44.318Z,11.60
2022-12-25T00:10:14.135Z,11.50
2022-12-25T00:12:43.469Z,11.60
2022-12-25T00:15:13.005Z,11.60
2022-12-25T00:17:42.719Z,11.50
2022-12-25T00:20:12.279Z,11.40
2022-12-25T00:22:54.880Z,11.30
2022-12-25T00:25:24.382Z,11.30
2022-12-25T00:27:53.829Z,11.10
2022-12-25T00:30:23.767Z,11.10
2022-12-25T00:32:53.219Z,11.10
2022-12-25T00:35:24.145Z,11.00
2022-12-25T00:37:53.565Z,11.00
2022-12-25T00:40:22.994Z,10.90
2022-12-25T00:42:52.100Z,10.80
2022-12-25T00:45:21.560Z,10.90
2022-12-25T00:47:51.048Z,10.80
2022-12-25T00:50:20.922Z,10.80
2022-12-25T00:52:50.358Z,10.80
2022-12-25T00:55:19.765Z,11.00
2022-12-25T00:57:49.504Z,11.00
2022-12-25T01:00:19.158Z,11.00
2022-12-25T01:02:48.767Z,11.20
2022-12-25T01:05:19.738Z,11.20
2022-12-25T01:07:49.174Z,11.30
2022-12-25T01:10:24.660Z,11.20
2022-12-25T01:12:54.126Z,11.40
2022-12-25T01:15:23.545Z,11.30
2022-12-25T01:17:52.979Z,11.20
2022-12-25T01:20:22.754Z,11.10
2022-12-25T01:22:52.224Z,11.10
2022-12-25T01:25:23.223Z,11.10
2022-12-25T01:27:53.313Z,11.10
2022-12-25T01:30:23.602Z,11.00
2022-12-25T01:32:53.112Z,11.10
2022-12-25T01:35:22.729Z,11.10
2022-12-25T01:37:53.699Z,11.10
2022-12-25T01:40:23.184Z,11.20
2022-12-25T01:42:52.953Z,11.30
2022-12-25T01:45:30.870Z,11.30
2022-12-25T01:48:04.445Z,11.20
2022-12-25T01:50:36.267Z,11.20
2022-12-25T01:53:08.216Z,11.20
2022-12-25T01:55:38.972Z,11.20
2022-12-25T01:58:10.242Z,11.30
2022-12-25T02:00:39.733Z,11.30
2022-12-25T02:03:09.336Z,11.20
2022-12-25T02:05:39.505Z,11.30
2022-12-25T02:08:12.103Z,11.20
2022-12-25T02:10:43.383Z,11.10
2022-12-25T02:13:15.920Z,11.10
2022-12-25T02:15:48.931Z,11.20
2022-12-25T02:18:27.313Z,11.10
2022-12-25T02:21:31.981Z,11.10
2022-12-25T02:24:21.144Z,10.90
2022-12-25T02:27:23.655Z,10.90
2022-12-25T02:29:56.149Z,10.80
2022-12-25T02:32:28.990Z,10.60
2022-12-25T02:35:13.141Z,10.50
2022-12-25T02:37:47.421Z,10.50
2022-12-25T02:40:31.749Z,10.60
2022-12-25T02:43:24.772Z,10.70
2022-12-25T02:46:17.691Z,11.20
2022-12-25T02:49:06.211Z,11.20
2022-12-25T02:51:56.776Z,11.30
2022-12-25T02:54:55.945Z,11.40
2022-12-25T02:57:46.262Z,11.50
2022-12-25T03:00:34.916Z,11.50
2022-12-25T03:03:25.203Z,11.60
2022-12-25T03:06:16.147Z,11.70
2022-12-25T03:08:48.658Z,11.80
2022-12-25T03:11:34.066Z,11.70
2022-12-25T03:14:24.074Z,11.80
2022-12-25T03:16:56.363Z,11.90
2022-12-25T03:19:55.790Z,12.00
2022-12-25T03:22:45.948Z,11.90
2022-12-25T03:26:32.063Z,11.90
2022-12-25T03:29:03.274Z,12.00
2022-12-25T03:31:39.419Z,12.00
2022-12-25T03:34:41.345Z,12.10
2022-12-25T03:37:34.469Z,12.10
2022-12-25T03:40:34.380Z,12.10
2022-12-25T03:43:27.836Z,12.00
2022-12-25T03:46:16.105Z,11.90
2022-12-25T03:49:06.368Z,12.00
2022-12-25T03:51:56.627Z,12.00
2022-12-25T03:54:46.994Z,12.10
2022-12-25T03:57:34.564Z,12.10
2022-12-25T04:00:22.400Z,11.90
2022-12-25T04:03:10.621Z,12.00
2022-12-25T04:05:58.065Z,12.10
2022-12-25T04:08:45.472Z,12.10
2022-12-25T04:11:33.168Z,12.10
2022-12-25T04:14:20.685Z,12.20
2022-12-25T04:17:07.883Z,12.10
2022-12-25T04:19:55.545Z,12.00
2022-12-25T04:22:42.816Z,12.00
2022-12-25T04:25:30.643Z,12.00
2022-12-25T04:28:20.370Z,11.90
2022-12-25T04:31:07.891Z,11.90
2022-12-25T04:33:55.347Z,11.80
2022-12-25T04:36:24.935Z,11.70
2022-12-25T04:38:54.365Z,11.60
2022-12-25T04:41:23.816Z,11.70
2022-12-25T04:43:53.312Z,11.70
2022-12-25T04:46:22.799Z,11.70
2022-12-25T04:48:52.299Z,11.60
2022-12-25T04:51:25.089Z,11.60
2022-12-25T04:53:54.976Z,11.50
2022-12-25T04:56:24.816Z,11.50
2022-12-25T04:58:54.392Z,11.40
2022-12-25T05:01:24.053Z,11.30
2022-12-25T05:03:54.257Z,11.10
2022-12-25T05:06:24.112Z,11.10
2022-12-25T05:08:53.526Z,10.90
2022-12-25T05:11:23.041Z,10.80
2022-12-25T05:13:52.500Z,10.60
2022-12-25T05:16:22.547Z,10.50
2022-12-25T05:18:53.097Z,10.40
2022-12-25T05:21:23.368Z,10.40
2022-12-25T05:23:54.204Z,10.40
2022-12-25T05:26:26.751Z,10.40
2022-12-25T05:28:56.954Z,10.30
2022-12-25T05:31:26.395Z,10.30
2022-12-25T05:33:55.912Z,10.30
2022-12-25T05:36:25.536Z,10.20
2022-12-25T05:38:55.350Z,10.20
2022-12-25T05:41:27.894Z,10.20
2022-12-25T05:43:56.157Z,10.20
2022-12-25T05:46:25.650Z,10.10
2022-12-25T05:48:55.196Z,10.10
2022-12-25T05:51:26.301Z,10.10
2022-12-25T05:53:55.733Z,10.00
2022-12-25T05:56:25.488Z,10.00
2022-12-25T05:58:56.912Z,10.00
2022-12-25T06:01:28.917Z,10.00
2022-12-25T06:03:58.919Z,10.00
2022-12-25T06:06:28.407Z,10.00
2022-12-25T06:08:57.815Z,9.90
2022-12-25T06:11:27.467Z,9.90
2022-12-25T06:13:56.885Z,9.90
2022-12-25T06:16:26.359Z,9.90
2022-12-25T06:18:55.931Z,9.80
2022-12-25T06:21:25.414Z,9.90
2022-12-25T06:23:54.908Z,9.70
2022-12-25T06:26:24.684Z,9.70
2022-12-25T06:28:54.940Z,9.60
2022-12-25T06:31:25.635Z,9.60
2022-12-25T06:33:55.137Z,9.60
2022-12-25T06:36:27.728Z,9.50
2022-12-25T06:38:57.700Z,9.50
2022-12-25T06:41:29.141Z,9.30
2022-12-25T06:44:02.604Z,9.30
2022-12-25T06:46:32.808Z,9.30
2022-12-25T06:49:02.305Z,9.30
2022-12-25T06:51:33.523Z,9.30
2022-12-25T06:54:04.674Z,9.20
2022-12-25T06:56:35.325Z,9.20
2022-12-25T06:59:10.190Z,9.20
2022-12-25T07:01:48.658Z,9.20
2022-12-25T07:04:32.364Z,9.30
2022-12-25T07:07:08.403Z,9.20
2022-12-25T07:09:33.897Z,9.30
2022-12-25T07:12:08.392Z,9.40
2022-12-25T07:14:37.989Z,9.30
2022-12-25T07:17:07.530Z,9.20
2022-12-25T07:19:42.731Z,9.20
2022-12-25T07:22:08.480Z,9.20
2022-12-25T07:24:37.992Z,9.10
2022-12-25T07:27:08.471Z,9.00
2022-12-25T07:29:39.559Z,9.10
2022-12-25T07:32:09.764Z,9.00
2022-12-25T07:34:39.235Z,9.00
2022-12-25T07:37:08.749Z,9.20
2022-12-25T07:39:38.167Z,9.30
2022-12-25T07:42:07.726Z,9.30
2022-12-25T07:44:37.159Z,9.30
2022-12-25T07:47:06.577Z,9.30
2022-12-25T07:49:36.870Z,9.30
2022-12-25T07:52:06.461Z,9.40
2022-12-25T07:54:35.952Z,9.40
2022-12-25T07:57:05.543Z,9.30
2022-12-25T07:59:34.962Z,9.10
2022-12-25T08:02:04.863Z,9.20
2022-12-25T08:04:34.960Z,9.40
2022-12-25T08:07:04.409Z,9.50
2022-12-25T08:09:33.811Z,9.40
2022-12-25T08:12:03.497Z,9.50
2022-12-25T08:14:32.925Z,9.50
2022-12-25T08:17:02.398Z,9.70
2022-12-25T08:19:32.209Z,9.80
2022-12-25T08:22:02.040Z,9.80
2022-12-25T08:24:31.465Z,9.90
2022-12-25T08:27:01.156Z,10.00
2022-12-25T08:29:31.113Z,9.90
2022-12-25T08:32:00.777Z,10.20
2022-12-25T08:34:30.516Z,10.30
2022-12-25T08:37:00.025Z,10.40
2022-12-25T08:39:29.563Z,10.40
2022-12-25T08:41:59.203Z,10.40
2022-12-25T08:44:28.693Z,10.40
2022-12-25T08:46:58.127Z,10.40
2022-12-25T08:49:29.418Z,10.40
2022-12-25T08:51:59.176Z,10.70
2022-12-25T08:54:28.578Z,10.60
2022-12-25T08:57:02.700Z,10.60
2022-12-25T08:59:29.174Z,10.80
2022-12-25T09:01:58.762Z,11.00
2022-12-25T09:04:28.448Z,10.90
2022-12-25T09:06:58.464Z,11.10
2022-12-25T09:09:29.611Z,11.40
2022-12-25T09:11:59.217Z,11.50
2022-12-25T09:14:28.786Z,11.70
2022-12-25T09:16:58.229Z,11.90
2022-12-25T09:19:27.769Z,12.30
2022-12-25T09:21:57.265Z,12.60
2022-12-25T09:24:26.755Z,12.90
2022-12-25T09:26:58.388Z,13.00
2022-12-25T09:29:27.767Z,12.80
2022-12-25T09:31:57.232Z,12.90
2022-12-25T09:34:26.732Z,13.00
2022-12-25T09:36:56.171Z,13.00
2022-12-25T09:39:25.841Z,13.20
2022-12-25T09:42:01.001Z,13.30
2022-12-25T09:44:33.732Z,13.40
2022-12-25T09:47:15.007Z,13.40
2022-12-25T09:49:47.667Z,13.60
2022-12-25T09:52:38.162Z,13.70
2022-12-25T09:55:20.593Z,13.80
2022-12-25T09:57:50.849Z,14.10
2022-12-25T10:00:23.602Z,14.20
2022-12-25T10:03:29.671Z,14.20
2022-12-25T10:06:23.500Z,14.10
2022-12-25T10:09:04.695Z,14.20
2022-12-25T10:11:38.184Z,13.90
2022-12-25T10:14:16.650Z,13.80
2022-12-25T10:16:55.127Z,13.80
2022-12-25T10:19:27.656Z,13.90
2022-12-25T10:21:57.981Z,13.50
2022-12-25T10:24:36.622Z,13.40
2022-12-25T10:27:14.775Z,13.40
2022-12-25T10:29:46.595Z,13.50
2022-12-25T10:32:16.840Z,13.30
2022-12-25T10:34:46.347Z,13.30
2022-12-25T10:37:17.542Z,13.60
2022-12-25T10:39:49.289Z,13.70
2022-12-25T10:42:31.019Z,13.50
2022-12-25T10:45:03.425Z,13.50
2022-12-25T10:47:39.691Z,13.50
2022-12-25T10:50:24.797Z,13.50
2022-12-25T10:53:06.084Z,13.50
2022-12-25T10:55:36.395Z,13.60
2022-12-25T10:58:07.512Z,13.70
2022-12-25T11:00:38.696Z,13.70
2022-12-25T11:03:11.351Z,13.60
2022-12-25T11:05:41.044Z,13.80
2022-12-25T11:08:16.085Z,13.60
2022-12-25T11:10:47.234Z,13.50
2022-12-25T11:13:20.003Z,13.40
2022-12-25T11:15:51.530Z,13.50
2022-12-25T11:18:26.728Z,13.40
2022-12-25T11:21:01.641Z,13.40
2022-12-25T11:23:33.500Z,13.50
2022-12-25T11:26:05.838Z,13.30
2022-12-25T11:28:39.002Z,13.40
2022-12-25T11:31:13.335Z,13.40
2022-12-25T11:34:04.111Z,13.40
2022-12-25T11:36:48.753Z,13.30
2022-12-25T11:39:32.751Z,13.40
2022-12-25T11:42:05.252Z,13.50
2022-12-25T11:44:50.185Z,13.50
2022-12-25T11:47:25.233Z,13.50
2022-12-25T11:50:00.780Z,13.50
2022-12-25T11:52:32.091Z,13.60
2022-12-25T11:55:19.912Z,13.70
2022-12-25T11:57:55.175Z,13.60
2022-12-25T12:08:02.875Z,13.70
2022-12-25T12:10:54.766Z,13.80
2022-12-25T12:13:45.736Z,13.80
2022-12-25T12:16:15.372Z,13.70
2022-12-25T12:18:50.405Z,13.80
2022-12-25T12:21:25.076Z,13.90
2022-12-25T12:24:06.827Z,13.90
2022-12-25T12:26:40.528Z,13.90
2022-12-25T12:29:25.257Z,14.00
2022-12-25T12:31:56.824Z,14.00
2022-12-25T12:34:32.133Z,14.00
2022-12-25T12:37:07.491Z,14.10
2022-12-25T12:39:40.722Z,14.20
2022-12-25T12:42:18.964Z,14.20
2022-12-25T12:44:50.439Z,14.30
2022-12-25T12:47:51.577Z,14.30
2022-12-25T12:50:36.460Z,14.20
2022-12-25T12:53:27.050Z,14.30
2022-12-25T12:55:56.804Z,14.30
2022-12-25T12:58:34.964Z,14.30
2022-12-25T13:01:10.849Z,14.30
2022-12-25T13:04:06.183Z,14.20
2022-12-25T13:06:53.710Z,14.30
2022-12-25T13:09:48.984Z,14.30
2022-12-25T13:12:19.789Z,14.20
2022-12-25T13:14:50.976Z,14.20
2022-12-25T13:17:23.645Z,14.30
2022-12-25T13:20:00.897Z,14.30
2022-12-25T13:22:35.886Z,14.30
2022-12-25T13:25:10.057Z,14.30
2022-12-25T13:27:39.605Z,14.30
2022-12-25T13:30:18.418Z,14.30
2022-12-25T13:32:49.876Z,14.30
2022-12-25T13:35:22.217Z,14.20
2022-12-25T13:37:52.889Z,14.10
2022-12-25T13:40:25.471Z,14.10
2022-12-25T13:42:58.005Z,14.10
2022-12-25T13:45:30.213Z,14.10
2022-12-25T13:48:03.587Z,14.10
2022-12-25T13:50:35.559Z,14.00
2022-12-25T13:53:17.169Z,14.00
2022-12-25T13:55:55.118Z,14.10
2022-12-25T13:58:27.817Z,14.10
2022-12-25T14:00:59.851Z,14.20
2022-12-25T14:03:38.971Z,14.20
2022-12-25T14:06:23.274Z,14.20
2022-12-25T14:08:55.660Z,14.20
2022-12-25T14:11:27.379Z,14.20
2022-12-25T14:14:00.020Z,14.10
2022-12-25T14:16:30.522Z,14.20
2022-12-25T14:19:04.575Z,14.20
2022-12-25T14:21:42.413Z,14.20
2022-12-25T14:24:17.435Z,14.20
2022-12-25T14:26:48.990Z,14.20
2022-12-25T14:32:47.096Z,14.30
2022-12-25T14:35:44.344Z,14.30
2022-12-25T14:38:01.670Z,14.20
2022-12-25T14:40:35.522Z,14.20
2022-12-25T14:43:20.843Z,14.20
2022-12-25T14:45:42.022Z,14.20
2022-12-25T14:48:24.952Z,14.10
2022-12-25T14:51:03.488Z,14.10
2022-12-25T14:53:57.099Z,14.20
2022-12-25T14:56:27.130Z,14.10
2022-12-25T14:59:02.799Z,14.10
2022-12-25T15:01:38.462Z,14.10
2022-12-25T15:04:14.148Z,14.00
2022-12-25T15:06:55.598Z,14.00
2022-12-25T15:09:25.148Z,14.00
2022-12-25T15:11:56.810Z,14.00
2022-12-25T15:14:27.870Z,13.90
2022-12-25T15:17:00.902Z,13.90
2022-12-25T15:19:38.171Z,13.90
2022-12-25T15:22:07.825Z,13.90
2022-12-25T15:24:37.255Z,13.90
2022-12-25T15:27:13.006Z,13.80
2022-12-25T15:30:08.995Z,13.80
2022-12-25T15:32:16.767Z,13.80
2022-12-25T15:34:47.268Z,13.80
2022-12-25T15:37:18.426Z,13.70
2022-12-25T15:39:48.199Z,13.60
2022-12-25T15:42:20.916Z,13.60
2022-12-25T15:44:50.461Z,13.50
2022-12-25T15:47:22.020Z,13.40
2022-12-25T15:49:51.585Z,13.40
2022-12-25T15:52:21.193Z,13.30
2022-12-25T15:54:50.625Z,13.30
2022-12-25T15:57:22.974Z,13.30
2022-12-25T15:59:52.404Z,13.30
2022-12-25T16:02:22.737Z,13.20
2022-12-25T16:04:54.043Z,13.20
2022-12-25T16:07:25.802Z,13.10
2022-12-25T16:09:55.254Z,13.10
2022-12-25T16:12:24.695Z,13.00
2022-12-25T16:14:54.134Z,13.00
2022-12-25T16:17:23.784Z,13.00
2022-12-25T16:19:53.289Z,12.90
2022-12-25T16:22:29.765Z,12.90
2022-12-25T16:24:59.263Z,13.00
2022-12-25T16:27:28.813Z,12.90
2022-12-25T16:29:59.771Z,12.90
2022-12-25T16:32:29.722Z,12.80
2022-12-25T16:35:01.414Z,12.80
2022-12-25T16:37:31.079Z,12.70
2022-12-25T16:40:00.736Z,12.60
2022-12-25T16:42:31.038Z,12.80
2022-12-25T16:45:00.465Z,12.70
2022-12-25T16:47:30.436Z,12.80
2022-12-25T16:50:00.863Z,12.60
2022-12-25T16:52:34.708Z,12.60
2022-12-25T16:55:05.381Z,12.70
2022-12-25T16:57:35.648Z,12.50
2022-12-25T17:00:06.979Z,12.50
2022-12-25T17:02:36.655Z,12.70
2022-12-25T17:05:07.357Z,12.50
2022-12-25T17:07:39.406Z,12.70
2022-12-25T17:10:10.874Z,12.50
2022-12-25T17:12:40.229Z,12.50
2022-12-25T17:15:10.685Z,12.50
2022-12-25T17:17:41.113Z,12.50
2022-12-25T17:20:11.004Z,12.60
2022-12-25T17:22:40.452Z,12.60
2022-12-25T17:25:10.692Z,12.60
2022-12-25T17:27:40.130Z,12.60
2022-12-25T17:30:11.180Z,12.80
2022-12-25T17:32:40.646Z,12.70
2022-12-25T17:35:13.574Z,12.70
2022-12-25T17:37:43.104Z,12.70
2022-12-25T17:40:13.052Z,12.60
2022-12-25T17:42:42.497Z,12.70
2022-12-25T17:45:13.076Z,12.70
2022-12-25T17:47:42.560Z,12.80
2022-12-25T17:50:12.167Z,12.90
2022-12-25T17:52:41.674Z,12.90
2022-12-25T17:55:11.600Z,12.70
2022-12-25T17:57:41.424Z,12.90
2022-12-25T18:00:13.077Z,12.80
2022-12-25T18:02:44.368Z,12.80
2022-12-25T18:05:14.771Z,12.80
2022-12-25T18:07:44.524Z,12.90
2022-12-25T18:10:14.864Z,12.90
2022-12-25T18:12:48.253Z,12.80
2022-12-25T18:15:17.751Z,12.90
2022-12-25T18:17:48.188Z,12.90
2022-12-25T18:20:17.692Z,12.90
2022-12-25T18:22:47.138Z,12.80
2022-12-25T18:25:16.771Z,12.60
2022-12-25T18:27:46.262Z,12.80
2022-12-25T18:30:15.848Z,12.70
2022-12-25T18:32:48.227Z,12.70
2022-12-25T18:35:18.083Z,12.70
2022-12-25T18:37:48.963Z,12.50
2022-12-25T18:40:18.471Z,12.50
2022-12-25T18:42:49.732Z,12.40
2022-12-25T18:45:21.129Z,12.40
2022-12-25T18:47:51.638Z,12.40
2022-12-25T18:50:26.203Z,12.30
2022-12-25T18:52:56.001Z,12.30
2022-12-25T18:55:28.431Z,12.40
2022-12-25T18:57:57.693Z,12.20
2022-12-25T19:00:28.151Z,12.20
2022-12-25T19:02:59.897Z,12.30
2022-12-25T19:05:30.133Z,12.20
2022-12-25T19:08:00.602Z,12.10
2022-12-25T19:10:30.078Z,12.10
2022-12-25T19:12:59.598Z,12.20
2022-12-25T19:15:29.014Z,12.00
2022-12-25T19:17:59.217Z,12.00
2022-12-25T19:20:28.980Z,12.10
2022-12-25T19:22:58.430Z,12.00
2022-12-25T19:25:28.247Z,12.20
2022-12-25T19:27:57.928Z,12.20
2022-12-25T19:30:27.364Z,12.00
2022-12-25T19:32:56.908Z,12.20
2022-12-25T19:35:26.413Z,12.00
2022-12-25T19:37:55.931Z,12.10
2022-12-25T19:40:26.673Z,12.10
2022-12-25T19:42:56.126Z,12.10
2022-12-25T19:45:25.595Z,12.20
2022-12-25T19:47:56.101Z,12.20
2022-12-25T19:50:30.800Z,12.10
2022-12-25T19:53:00.289Z,12.20
2022-12-25T19:55:31.346Z,12.10
2022-12-25T19:58:01.272Z,12.20
2022-12-25T20:00:31.271Z,12.20
2022-12-25T20:03:01.553Z,12.10
2022-12-25T20:05:31.633Z,12.00
2022-12-25T20:08:01.115Z,12.20
2022-12-25T20:10:30.528Z,12.10
2022-12-25T20:12:59.969Z,12.20
2022-12-25T20:15:29.851Z,11.90
2022-12-25T20:17:59.528Z,12.10
2022-12-25T20:20:29.050Z,11.80
2022-12-25T20:22:58.521Z,12.00
2022-12-25T20:25:28.024Z,12.00
2022-12-25T20:27:58.024Z,12.00
2022-12-25T20:30:27.673Z,11.60
2022-12-25T20:32:58.072Z,11.60
2022-12-25T20:35:27.499Z,11.90
2022-12-25T20:37:57.208Z,11.80
2022-12-25T20:40:27.482Z,11.70
2022-12-25T20:42:56.916Z,11.80
2022-12-25T20:45:26.537Z,11.70
2022-12-25T20:47:55.966Z,11.40
2022-12-25T20:50:25.398Z,11.70
2022-12-25T20:52:55.969Z,11.50
2022-12-25T20:55:25.419Z,11.50
2022-12-25T20:57:54.850Z,11.60
2022-12-25T21:00:24.811Z,11.40
2022-12-25T21:02:54.452Z,11.60
2022-12-25T21:05:25.238Z,11.30
2022-12-25T21:07:54.672Z,11.30
2022-12-25T21:10:24.195Z,11.40
2022-12-25T21:12:53.655Z,11.30
2022-12-25T21:15:23.660Z,11.30
2022-12-25T21:17:53.147Z,11.30
2022-12-25T21:20:22.735Z,11.30
2022-12-25T21:22:52.157Z,11.40
2022-12-25T21:25:21.646Z,11.20
2022-12-25T21:27:51.070Z,11.20
2022-12-25T21:30:20.517Z,11.30
2022-12-25T21:33:08.425Z,11.00
2022-12-25T21:35:38.693Z,11.10
2022-12-25T21:38:08.397Z,11.10
2022-12-25T21:40:39.188Z,11.10
2022-12-25T21:43:08.802Z,11.00
2022-12-25T21:45:38.321Z,10.90
2022-12-25T21:48:07.812Z,11.10
2022-12-25T21:50:56.368Z,11.20
2022-12-25T21:53:25.804Z,11.10
2022-12-25T21:56:03.107Z,11.00
2022-12-25T21:58:32.861Z,11.20
2022-12-25T22:01:05.912Z,11.20
2022-12-25T22:03:35.601Z,11.00
2022-12-25T22:06:23.399Z,11.00
2022-12-25T22:08:52.810Z,11.20
2022-12-25T22:11:40.287Z,10.90
2022-12-25T22:14:51.497Z,11.00
2022-12-25T22:17:19.587Z,11.00
2022-12-25T22:19:49.085Z,10.90
2022-12-25T22:22:24.530Z,10.80
2022-12-25T22:24:56.682Z,10.70
2022-12-25T22:27:27.095Z,10.80
2022-12-25T22:29:59.543Z,10.80
2022-12-25T22:32:31.153Z,11.00
2022-12-25T22:35:00.714Z,11.00
2022-12-25T22:37:30.241Z,10.90
2022-12-25T22:40:01.516Z,10.80
2022-12-25T22:42:39.670Z,11.00
2022-12-25T22:45:10.469Z,11.00
2022-12-25T22:47:41.410Z,10.90
2022-12-25T22:50:12.625Z,10.70
2022-12-25T22:52:43.350Z,10.80
2022-12-25T22:55:18.689Z,10.90
2022-12-25T22:57:49.214Z,10.90
2022-12-25T23:00:18.687Z,10.70
2022-12-25T23:02:48.268Z,10.80
2022-12-25T23:05:18.193Z,10.60
2022-12-25T23:07:47.627Z,10.80
2022-12-25T23:10:17.085Z,10.50
2022-12-25T23:13:04.901Z,10.50
2022-12-25T23:15:34.392Z,10.50
2022-12-25T23:18:22.136Z,10.50
2022-12-25T23:21:09.449Z,10.40
2022-12-25T23:23:56.474Z,10.60
2022-12-25T23:26:25.914Z,10.30
2022-12-25T23:29:13.429Z,10.50
2022-12-25T23:31:43.413Z,10.40
2022-12-25T23:34:12.830Z,10.50
2022-12-25T23:36:42.755Z,10.40
2022-12-25T23:39:12.170Z,10.20
2022-12-25T23:41:43.797Z,10.20
2022-12-25T23:44:14.549Z,10.20
2022-12-25T23:46:52.201Z,10.20
2022-12-25T23:49:17.086Z,10.20
2022-12-25T23:51:47.793Z,10.20
2022-12-25T23:54:20.573Z,10.20
2022-12-25T23:56:50.121Z,10.10
2022-12-25T23:59:19.793Z,10.10
